sensor_id;sensor_type;location;lat;lon;timestamp;P1;durP1;ratioP1;P2;durP2;ratioP2
29432;SDS011;16405;53.964;13.448;2022-11-10T00:03:27;8.38;;;1.40;;
29432;SDS011;16405;53.964;13.448;2022-11-10T00:09:38;3.30;;;1.30;;
29432;SDS011;16405;53.964;13.448;2022-11-10T00:13:03;4.15;;;1.27;;
29432;SDS011;16405;53.964;13.448;2022-11-10T00:23:12;7.47;;;1.40;;
29432;SDS011;16405;53.964;13.448;2022-11-10T00:25:39;11.13;;;1.88;;
29432;SDS011;16405;53.964;13.448;2022-11-10T00:28:32;9.15;;;1.65;;
29432;SDS011;16405;53.964;13.448;2022-11-10T00:31:15;5.95;;;1.60;;
29432;SDS011;16405;53.964;13.448;2022-11-10T00:33:52;3.47;;;1.40;;
29432;SDS011;16405;53.964;13.448;2022-11-10T00:36:18;3.75;;;1.27;;
29432;SDS011;16405;53.964;13.448;2022-11-10T00:43:14;2.72;;;0.95;;
29432;SDS011;16405;53.964;13.448;2022-11-10T00:48:33;4.82;;;1.65;;
29432;SDS011;16405;53.964;13.448;2022-11-10T00:57:54;4.97;;;1.40;;
29432;SDS011;16405;53.964;13.448;2022-11-10T01:03:13;7.53;;;1.98;;
29432;SDS011;16405;53.964;13.448;2022-11-10T01:05:53;4.93;;;1.48;;
29432;SDS011;16405;53.964;13.448;2022-11-10T01:11:44;10.05;;;1.38;;
29432;SDS011;16405;53.964;13.448;2022-11-10T01:14:22;16.20;;;1.88;;
29432;SDS011;16405;53.964;13.448;2022-11-10T01:16:48;3.97;;;1.52;;
29432;SDS011;16405;53.964;13.448;2022-11-10T01:19:43;7.03;;;1.90;;
29432;SDS011;16405;53.964;13.448;2022-11-10T01:22:21;17.65;;;1.83;;
29432;SDS011;16405;53.964;13.448;2022-11-10T01:24:59;6.47;;;1.85;;
29432;SDS011;16405;53.964;13.448;2022-11-10T01:27:28;12.02;;;1.50;;
29432;SDS011;16405;53.964;13.448;2022-11-10T01:30:03;4.72;;;1.48;;
29432;SDS011;16405;53.964;13.448;2022-11-10T01:32:30;20.55;;;2.25;;
29432;SDS011;16405;53.964;13.448;2022-11-10T01:34:56;7.85;;;1.55;;
29432;SDS011;16405;53.964;13.448;2022-11-10T01:37:22;7.15;;;1.48;;
29432;SDS011;16405;53.964;13.448;2022-11-10T01:46:12;4.72;;;1.40;;
29432;SDS011;16405;53.964;13.448;2022-11-10T01:49:03;6.32;;;1.48;;
29432;SDS011;16405;53.964;13.448;2022-11-10T01:57:51;7.65;;;1.75;;
29432;SDS011;16405;53.964;13.448;2022-11-10T02:07:09;4.88;;;1.48;;
29432;SDS011;16405;53.964;13.448;2022-11-10T02:13:23;5.53;;;1.65;;
29432;SDS011;16405;53.964;13.448;2022-11-10T02:19:28;6.07;;;1.73;;
29432;SDS011;16405;53.964;13.448;2022-11-10T02:22:06;5.72;;;1.92;;
29432;SDS011;16405;53.964;13.448;2022-11-10T02:24:34;6.40;;;1.63;;
29432;SDS011;16405;53.964;13.448;2022-11-10T02:29:52;4.90;;;1.70;;
29432;SDS011;16405;53.964;13.448;2022-11-10T02:35:45;4.72;;;1.58;;
29432;SDS011;16405;53.964;13.448;2022-11-10T02:38:24;8.93;;;1.80;;
29432;SDS011;16405;53.964;13.448;2022-11-10T02:40:50;10.93;;;2.20;;
29432;SDS011;16405;53.964;13.448;2022-11-10T02:46:05;12.05;;;1.70;;
29432;SDS011;16405;53.964;13.448;2022-11-10T02:48:32;8.27;;;2.05;;
29432;SDS011;16405;53.964;13.448;2022-11-10T02:50:58;6.15;;;1.70;;
29432;SDS011;16405;53.964;13.448;2022-11-10T02:53:39;6.78;;;2.20;;
29432;SDS011;16405;53.964;13.448;2022-11-10T02:56:17;10.10;;;2.08;;
29432;SDS011;16405;53.964;13.448;2022-11-10T02:58:53;5.85;;;2.10;;
29432;SDS011;16405;53.964;13.448;2022-11-10T03:06:43;12.65;;;3.10;;
29432;SDS011;16405;53.964;13.448;2022-11-10T03:13:01;6.65;;;2.15;;
29432;SDS011;16405;53.964;13.448;2022-11-10T03:15:27;8.03;;;2.37;;
29432;SDS011;16405;53.964;13.448;2022-11-10T03:18:23;8.65;;;2.38;;
29432;SDS011;16405;53.964;13.448;2022-11-10T03:20:49;8.10;;;2.20;;
29432;SDS011;16405;53.964;13.448;2022-11-10T03:23:26;4.78;;;2.03;;
29432;SDS011;16405;53.964;13.448;2022-11-10T03:25:55;4.40;;;2.13;;
29432;SDS011;16405;53.964;13.448;2022-11-10T03:28:35;7.50;;;2.40;;
29432;SDS011;16405;53.964;13.448;2022-11-10T03:31:23;8.88;;;2.20;;
29432;SDS011;16405;53.964;13.448;2022-11-10T03:34:05;7.30;;;2.38;;
29432;SDS011;16405;53.964;13.448;2022-11-10T03:40:12;8.40;;;2.35;;
29432;SDS011;16405;53.964;13.448;2022-11-10T03:42:42;5.63;;;2.38;;
29432;SDS011;16405;53.964;13.448;2022-11-10T03:45:35;6.65;;;2.25;;
29432;SDS011;16405;53.964;13.448;2022-11-10T03:48:45;9.60;;;2.78;;
29432;SDS011;16405;53.964;13.448;2022-11-10T03:51:13;8.90;;;2.80;;
29432;SDS011;16405;53.964;13.448;2022-11-10T03:56:28;10.35;;;2.25;;
29432;SDS011;16405;53.964;13.448;2022-11-10T04:12:35;9.45;;;2.88;;
29432;SDS011;16405;53.964;13.448;2022-11-10T04:15:28;7.88;;;2.88;;
29432;SDS011;16405;53.964;13.448;2022-11-10T04:18:43;11.90;;;3.30;;
29432;SDS011;16405;53.964;13.448;2022-11-10T04:24:33;22.92;;;3.38;;
29432;SDS011;16405;53.964;13.448;2022-11-10T04:30:05;11.77;;;2.88;;
29432;SDS011;16405;53.964;13.448;2022-11-10T04:32:45;19.02;;;3.28;;
29432;SDS011;16405;53.964;13.448;2022-11-10T04:35:44;8.13;;;3.25;;
29432;SDS011;16405;53.964;13.448;2022-11-10T04:38:22;10.50;;;2.80;;
29432;SDS011;16405;53.964;13.448;2022-11-10T04:40:48;9.50;;;2.90;;
29432;SDS011;16405;53.964;13.448;2022-11-10T04:43:27;7.43;;;3.03;;
29432;SDS011;16405;53.964;13.448;2022-11-10T04:49:34;10.10;;;2.45;;
29432;SDS011;16405;53.964;13.448;2022-11-10T04:52:03;14.38;;;2.40;;
29432;SDS011;16405;53.964;13.448;2022-11-10T04:54:53;9.50;;;3.33;;
29432;SDS011;16405;53.964;13.448;2022-11-10T04:57:55;8.00;;;2.88;;
29432;SDS011;16405;53.964;13.448;2022-11-10T05:03:31;12.82;;;3.00;;
29432;SDS011;16405;53.964;13.448;2022-11-10T05:06:24;8.70;;;3.05;;
29432;SDS011;16405;53.964;13.448;2022-11-10T05:08:59;12.45;;;3.50;;
29432;SDS011;16405;53.964;13.448;2022-11-10T05:11:40;12.55;;;3.08;;
29432;SDS011;16405;53.964;13.448;2022-11-10T05:14:06;14.43;;;4.55;;
29432;SDS011;16405;53.964;13.448;2022-11-10T05:16:32;11.88;;;3.65;;
29432;SDS011;16405;53.964;13.448;2022-11-10T05:29:05;17.25;;;3.83;;
29432;SDS011;16405;53.964;13.448;2022-11-10T05:31:30;10.60;;;3.90;;
29432;SDS011;16405;53.964;13.448;2022-11-10T05:34:05;15.10;;;3.70;;
29432;SDS011;16405;53.964;13.448;2022-11-10T05:36:34;10.23;;;3.60;;
29432;SDS011;16405;53.964;13.448;2022-11-10T05:39:12;23.17;;;4.30;;
29432;SDS011;16405;53.964;13.448;2022-11-10T05:41:52;11.90;;;3.80;;
29432;SDS011;16405;53.964;13.448;2022-11-10T05:44:18;17.10;;;3.80;;
29432;SDS011;16405;53.964;13.448;2022-11-10T05:47:12;12.38;;;4.10;;
29432;SDS011;16405;53.964;13.448;2022-11-10T05:49:38;14.65;;;4.40;;
29432;SDS011;16405;53.964;13.448;2022-11-10T05:52:12;15.57;;;4.15;;
29432;SDS011;16405;53.964;13.448;2022-11-10T05:54:42;13.43;;;3.95;;
29432;SDS011;16405;53.964;13.448;2022-11-10T06:04:18;11.98;;;4.45;;
29432;SDS011;16405;53.964;13.448;2022-11-10T06:09:55;11.68;;;4.97;;
29432;SDS011;16405;53.964;13.448;2022-11-10T06:12:45;12.60;;;5.40;;
29432;SDS011;16405;53.964;13.448;2022-11-10T06:18:55;15.30;;;6.03;;
29432;SDS011;16405;53.964;13.448;2022-11-10T06:21:21;25.75;;;6.80;;
29432;SDS011;16405;53.964;13.448;2022-11-10T06:26:54;22.48;;;6.75;;
29432;SDS011;16405;53.964;13.448;2022-11-10T06:29:23;27.23;;;6.63;;
29432;SDS011;16405;53.964;13.448;2022-11-10T06:38:53;24.77;;;5.35;;
29432;SDS011;16405;53.964;13.448;2022-11-10T06:41:35;14.70;;;4.95;;
29432;SDS011;16405;53.964;13.448;2022-11-10T06:50:43;11.13;;;5.05;;
29432;SDS011;16405;53.964;13.448;2022-11-10T06:53:48;18.60;;;5.68;;
29432;SDS011;16405;53.964;13.448;2022-11-10T06:56:51;19.98;;;6.75;;
29432;SDS011;16405;53.964;13.448;2022-11-10T06:59:45;35.53;;;8.02;;
29432;SDS011;16405;53.964;13.448;2022-11-10T07:02:23;14.95;;;6.35;;
29432;SDS011;16405;53.964;13.448;2022-11-10T07:05:02;14.48;;;5.97;;
29432;SDS011;16405;53.964;13.448;2022-11-10T07:07:29;22.83;;;5.65;;
29432;SDS011;16405;53.964;13.448;2022-11-10T07:10:26;13.88;;;5.43;;
29432;SDS011;16405;53.964;13.448;2022-11-10T07:13:35;14.40;;;5.82;;
29432;SDS011;16405;53.964;13.448;2022-11-10T07:16:19;13.98;;;6.05;;
29432;SDS011;16405;53.964;13.448;2022-11-10T07:22:43;24.48;;;6.60;;
29432;SDS011;16405;53.964;13.448;2022-11-10T07:28:13;11.73;;;4.65;;
29432;SDS011;16405;53.964;13.448;2022-11-10T07:33:55;11.98;;;5.70;;
29432;SDS011;16405;53.964;13.448;2022-11-10T07:37:03;18.98;;;5.63;;
29432;SDS011;16405;53.964;13.448;2022-11-10T07:40:18;10.55;;;4.93;;
29432;SDS011;16405;53.964;13.448;2022-11-10T07:43:25;14.05;;;5.65;;
29432;SDS011;16405;53.964;13.448;2022-11-10T07:45:54;14.93;;;4.82;;
29432;SDS011;16405;53.964;13.448;2022-11-10T07:51:14;16.80;;;5.80;;
29432;SDS011;16405;53.964;13.448;2022-11-10T08:23:58;18.42;;;6.03;;
29432;SDS011;16405;53.964;13.448;2022-11-10T08:26:41;19.42;;;5.60;;
29432;SDS011;16405;53.964;13.448;2022-11-10T08:32:47;16.27;;;5.43;;
29432;SDS011;16405;53.964;13.448;2022-11-10T08:49:04;14.20;;;5.45;;
29432;SDS011;16405;53.964;13.448;2022-11-10T08:51:41;19.00;;;5.47;;
29432;SDS011;16405;53.964;13.448;2022-11-10T08:57:39;14.23;;;5.45;;
29432;SDS011;16405;53.964;13.448;2022-11-10T09:00:47;20.10;;;5.88;;
29432;SDS011;16405;53.964;13.448;2022-11-10T09:06:57;15.30;;;4.85;;
29432;SDS011;16405;53.964;13.448;2022-11-10T09:09:36;25.50;;;5.30;;
29432;SDS011;16405;53.964;13.448;2022-11-10T09:12:15;13.98;;;5.32;;
29432;SDS011;16405;53.964;13.448;2022-11-10T09:14:43;16.92;;;5.47;;
29432;SDS011;16405;53.964;13.448;2022-11-10T09:20:34;11.68;;;4.55;;
29432;SDS011;16405;53.964;13.448;2022-11-10T09:23:45;13.02;;;4.70;;
29432;SDS011;16405;53.964;13.448;2022-11-10T09:32:31;14.77;;;5.20;;
29432;SDS011;16405;53.964;13.448;2022-11-10T09:34:57;11.73;;;5.03;;
29432;SDS011;16405;53.964;13.448;2022-11-10T10:00:16;16.42;;;4.80;;
29432;SDS011;16405;53.964;13.448;2022-11-10T10:24:33;20.00;;;5.72;;
29432;SDS011;16405;53.964;13.448;2022-11-10T10:27:43;26.77;;;6.18;;
29432;SDS011;16405;53.964;13.448;2022-11-10T10:30:54;18.38;;;4.45;;
29432;SDS011;16405;53.964;13.448;2022-11-10T10:34:03;39.60;;;5.63;;
29432;SDS011;16405;53.964;13.448;2022-11-10T10:40:45;16.92;;;4.13;;
29432;SDS011;16405;53.964;13.448;2022-11-10T10:44:16;17.92;;;4.00;;
29432;SDS011;16405;53.964;13.448;2022-11-10T10:51:28;15.02;;;3.25;;
29432;SDS011;16405;53.964;13.448;2022-11-10T10:56:47;20.77;;;4.20;;
29432;SDS011;16405;53.964;13.448;2022-11-10T11:02:28;21.75;;;4.88;;
29432;SDS011;16405;53.964;13.448;2022-11-10T11:05:08;38.00;;;5.90;;
29432;SDS011;16405;53.964;13.448;2022-11-10T11:08:16;22.73;;;3.83;;
29432;SDS011;16405;53.964;13.448;2022-11-10T11:10:44;10.52;;;3.05;;
29432;SDS011;16405;53.964;13.448;2022-11-10T11:14:07;11.20;;;3.03;;
29432;SDS011;16405;53.964;13.448;2022-11-10T11:19:43;18.17;;;4.82;;
29432;SDS011;16405;53.964;13.448;2022-11-10T11:25:40;18.95;;;4.30;;
29432;SDS011;16405;53.964;13.448;2022-11-10T11:28:36;17.85;;;4.05;;
29432;SDS011;16405;53.964;13.448;2022-11-10T11:35:10;9.57;;;2.78;;
29432;SDS011;16405;53.964;13.448;2022-11-10T11:38:28;12.60;;;3.00;;
29432;SDS011;16405;53.964;13.448;2022-11-10T12:22:07;20.50;;;3.85;;
29432;SDS011;16405;53.964;13.448;2022-11-10T12:27:43;20.63;;;4.07;;
29432;SDS011;16405;53.964;13.448;2022-11-10T12:30:23;25.77;;;4.15;;
29432;SDS011;16405;53.964;13.448;2022-11-10T12:32:54;17.65;;;4.07;;
29432;SDS011;16405;53.964;13.448;2022-11-10T12:35:42;15.38;;;3.65;;
29432;SDS011;16405;53.964;13.448;2022-11-10T12:38:46;16.08;;;3.38;;
29432;SDS011;16405;53.964;13.448;2022-11-10T12:41:23;14.98;;;3.40;;
29432;SDS011;16405;53.964;13.448;2022-11-10T12:44:47;19.23;;;3.88;;
29432;SDS011;16405;53.964;13.448;2022-11-10T12:46:59;16.40;;;2.92;;
29432;SDS011;16405;53.964;13.448;2022-11-10T12:49:37;20.85;;;4.05;;
29432;SDS011;16405;53.964;13.448;2022-11-10T12:52:36;15.10;;;3.83;;
29432;SDS011;16405;53.964;13.448;2022-11-10T12:55:56;23.08;;;3.97;;
29432;SDS011;16405;53.964;13.448;2022-11-10T12:58:18;11.95;;;3.55;;
29432;SDS011;16405;53.964;13.448;2022-11-10T13:00:52;21.30;;;3.80;;
29432;SDS011;16405;53.964;13.448;2022-11-10T13:03:39;21.45;;;3.88;;
29432;SDS011;16405;53.964;13.448;2022-11-10T13:06:23;13.10;;;3.60;;
29432;SDS011;16405;53.964;13.448;2022-11-10T13:09:26;13.43;;;3.83;;
29432;SDS011;16405;53.964;13.448;2022-11-10T13:12:17;19.33;;;4.22;;
29432;SDS011;16405;53.964;13.448;2022-11-10T13:14:48;14.93;;;3.65;;
29432;SDS011;16405;53.964;13.448;2022-11-10T13:17:58;18.30;;;3.92;;
29432;SDS011;16405;53.964;13.448;2022-11-10T13:23:22;27.30;;;4.47;;
29432;SDS011;16405;53.964;13.448;2022-11-10T13:26:09;17.77;;;3.88;;
29432;SDS011;16405;53.964;13.448;2022-11-10T13:28:56;13.50;;;3.95;;
29432;SDS011;16405;53.964;13.448;2022-11-10T13:34:11;16.00;;;3.83;;
29432;SDS011;16405;53.964;13.448;2022-11-10T13:36:58;17.92;;;3.95;;
29432;SDS011;16405;53.964;13.448;2022-11-10T13:39:26;18.90;;;3.42;;
29432;SDS011;16405;53.964;13.448;2022-11-10T13:44:39;14.13;;;3.63;;
29432;SDS011;16405;53.964;13.448;2022-11-10T13:59:14;17.48;;;4.13;;
29432;SDS011;16405;53.964;13.448;2022-11-10T14:01:48;16.75;;;3.67;;
29432;SDS011;16405;53.964;13.448;2022-11-10T14:07:17;15.57;;;4.15;;
29432;SDS011;16405;53.964;13.448;2022-11-10T14:09:50;13.38;;;4.05;;
29432;SDS011;16405;53.964;13.448;2022-11-10T14:12:20;13.32;;;3.80;;
29432;SDS011;16405;53.964;13.448;2022-11-10T14:15:04;25.98;;;4.10;;
29432;SDS011;16405;53.964;13.448;2022-11-10T14:17:45;13.05;;;3.60;;
29432;SDS011;16405;53.964;13.448;2022-11-10T14:20:33;15.85;;;4.38;;
29432;SDS011;16405;53.964;13.448;2022-11-10T14:26:18;19.15;;;5.22;;
29432;SDS011;16405;53.964;13.448;2022-11-10T14:29:19;21.95;;;4.82;;
29432;SDS011;16405;53.964;13.448;2022-11-10T14:31:57;7.20;;;3.30;;
29432;SDS011;16405;53.964;13.448;2022-11-10T14:34:40;23.23;;;4.45;;
29432;SDS011;16405;53.964;13.448;2022-11-10T14:37:23;20.73;;;4.82;;
29432;SDS011;16405;53.964;13.448;2022-11-10T14:40:03;16.23;;;4.10;;
29432;SDS011;16405;53.964;13.448;2022-11-10T14:42:41;17.42;;;4.53;;
29432;SDS011;16405;53.964;13.448;2022-11-10T14:45:19;16.27;;;4.25;;
29432;SDS011;16405;53.964;13.448;2022-11-10T14:48:01;22.73;;;4.70;;
29432;SDS011;16405;53.964;13.448;2022-11-10T14:50:42;17.70;;;5.07;;
29432;SDS011;16405;53.964;13.448;2022-11-10T14:53:14;17.52;;;4.53;;
29432;SDS011;16405;53.964;13.448;2022-11-10T14:55:58;19.10;;;4.70;;
29432;SDS011;16405;53.964;13.448;2022-11-10T14:58:38;18.02;;;5.05;;
29432;SDS011;16405;53.964;13.448;2022-11-10T15:01:25;18.92;;;4.32;;
29432;SDS011;16405;53.964;13.448;2022-11-10T15:04:01;17.05;;;4.45;;
29432;SDS011;16405;53.964;13.448;2022-11-10T15:06:42;14.57;;;4.88;;
29432;SDS011;16405;53.964;13.448;2022-11-10T15:09:25;18.30;;;5.32;;
29432;SDS011;16405;53.964;13.448;2022-11-10T15:12:33;20.90;;;5.60;;
29432;SDS011;16405;53.964;13.448;2022-11-10T15:14:59;15.55;;;4.82;;
29432;SDS011;16405;53.964;13.448;2022-11-10T15:18:03;16.33;;;5.03;;
29432;SDS011;16405;53.964;13.448;2022-11-10T15:20:31;29.55;;;6.05;;
29432;SDS011;16405;53.964;13.448;2022-11-10T15:23:17;18.38;;;4.70;;
29432;SDS011;16405;53.964;13.448;2022-11-10T15:25:54;20.33;;;4.88;;
29432;SDS011;16405;53.964;13.448;2022-11-10T15:28:28;22.65;;;5.63;;
29432;SDS011;16405;53.964;13.448;2022-11-10T15:31:00;17.90;;;5.40;;
29432;SDS011;16405;53.964;13.448;2022-11-10T15:33:44;17.05;;;5.20;;
29432;SDS011;16405;53.964;13.448;2022-11-10T15:36:28;15.07;;;5.03;;
29432;SDS011;16405;53.964;13.448;2022-11-10T15:41:56;26.10;;;5.68;;
29432;SDS011;16405;53.964;13.448;2022-11-10T15:44:46;21.80;;;5.10;;
29432;SDS011;16405;53.964;13.448;2022-11-10T15:47:13;23.52;;;5.25;;
29432;SDS011;16405;53.964;13.448;2022-11-10T15:49:50;16.17;;;5.07;;
29432;SDS011;16405;53.964;13.448;2022-11-10T15:52:19;19.08;;;4.93;;
29432;SDS011;16405;53.964;13.448;2022-11-10T15:54:57;18.33;;;4.80;;
29432;SDS011;16405;53.964;13.448;2022-11-10T15:57:23;18.10;;;6.18;;
29432;SDS011;16405;53.964;13.448;2022-11-10T15:59:57;23.38;;;5.47;;
29432;SDS011;16405;53.964;13.448;2022-11-10T16:02:24;15.93;;;5.25;;
29432;SDS011;16405;53.964;13.448;2022-11-10T16:04:51;14.65;;;5.35;;
29432;SDS011;16405;53.964;13.448;2022-11-10T16:07:42;21.98;;;6.43;;
29432;SDS011;16405;53.964;13.448;2022-11-10T16:10:08;16.25;;;5.18;;
29432;SDS011;16405;53.964;13.448;2022-11-10T16:12:34;17.83;;;4.93;;
29432;SDS011;16405;53.964;13.448;2022-11-10T16:17:51;19.70;;;5.38;;
29432;SDS011;16405;53.964;13.448;2022-11-10T16:20:17;22.17;;;6.28;;
29432;SDS011;16405;53.964;13.448;2022-11-10T16:22:43;21.33;;;5.25;;
29432;SDS011;16405;53.964;13.448;2022-11-10T16:25:16;23.33;;;6.63;;
29432;SDS011;16405;53.964;13.448;2022-11-10T16:27:44;23.00;;;5.25;;
29432;SDS011;16405;53.964;13.448;2022-11-10T16:30:19;16.75;;;5.53;;
29432;SDS011;16405;53.964;13.448;2022-11-10T16:32:47;17.48;;;5.72;;
29432;SDS011;16405;53.964;13.448;2022-11-10T16:35:14;26.20;;;5.72;;
29432;SDS011;16405;53.964;13.448;2022-11-10T16:41:10;19.90;;;5.75;;
29432;SDS011;16405;53.964;13.448;2022-11-10T16:43:43;19.00;;;5.63;;
29432;SDS011;16405;53.964;13.448;2022-11-10T16:46:24;20.25;;;5.43;;
29432;SDS011;16405;53.964;13.448;2022-11-10T16:49:02;28.30;;;5.90;;
29432;SDS011;16405;53.964;13.448;2022-11-10T16:51:42;19.35;;;5.18;;
29432;SDS011;16405;53.964;13.448;2022-11-10T16:54:10;25.75;;;6.60;;
29432;SDS011;16405;53.964;13.448;2022-11-10T16:56:42;21.85;;;5.45;;
29432;SDS011;16405;53.964;13.448;2022-11-10T16:59:13;24.50;;;6.70;;
29432;SDS011;16405;53.964;13.448;2022-11-10T17:04:15;21.70;;;6.88;;
29432;SDS011;16405;53.964;13.448;2022-11-10T17:09:51;20.05;;;5.80;;
29432;SDS011;16405;53.964;13.448;2022-11-10T17:12:19;17.85;;;5.72;;
29432;SDS011;16405;53.964;13.448;2022-11-10T17:14:59;20.15;;;5.35;;
29432;SDS011;16405;53.964;13.448;2022-11-10T17:17:33;28.00;;;6.90;;
29432;SDS011;16405;53.964;13.448;2022-11-10T17:20:03;25.10;;;5.82;;
29432;SDS011;16405;53.964;13.448;2022-11-10T17:22:50;24.63;;;6.55;;
29432;SDS011;16405;53.964;13.448;2022-11-10T17:25:24;17.67;;;5.13;;
29432;SDS011;16405;53.964;13.448;2022-11-10T17:28:00;19.80;;;5.28;;
29432;SDS011;16405;53.964;13.448;2022-11-10T17:30:26;20.60;;;5.55;;
29432;SDS011;16405;53.964;13.448;2022-11-10T17:35:48;23.55;;;6.35;;
29432;SDS011;16405;53.964;13.448;2022-11-10T17:38:24;25.48;;;5.88;;
29432;SDS011;16405;53.964;13.448;2022-11-10T17:41:02;25.50;;;5.95;;
29432;SDS011;16405;53.964;13.448;2022-11-10T17:43:43;21.08;;;5.50;;
29432;SDS011;16405;53.964;13.448;2022-11-10T17:46:10;19.25;;;5.35;;
29432;SDS011;16405;53.964;13.448;2022-11-10T17:48:57;23.73;;;5.25;;
29432;SDS011;16405;53.964;13.448;2022-11-10T17:51:23;20.77;;;5.78;;
29432;SDS011;16405;53.964;13.448;2022-11-10T17:53:48;22.08;;;6.20;;
29432;SDS011;16405;53.964;13.448;2022-11-10T17:56:15;18.55;;;5.57;;
29432;SDS011;16405;53.964;13.448;2022-11-10T17:58:41;27.83;;;6.60;;
29432;SDS011;16405;53.964;13.448;2022-11-10T18:01:18;23.90;;;6.50;;
29432;SDS011;16405;53.964;13.448;2022-11-10T18:03:45;22.80;;;5.88;;
29432;SDS011;16405;53.964;13.448;2022-11-10T18:06:15;24.35;;;5.50;;
29432;SDS011;16405;53.964;13.448;2022-11-10T18:08:43;27.60;;;5.65;;
29432;SDS011;16405;53.964;13.448;2022-11-10T18:11:10;28.85;;;6.50;;
29432;SDS011;16405;53.964;13.448;2022-11-10T18:13:39;17.95;;;5.65;;
29432;SDS011;16405;53.964;13.448;2022-11-10T18:16:11;23.15;;;5.45;;
29432;SDS011;16405;53.964;13.448;2022-11-10T18:18:38;21.77;;;5.55;;
29432;SDS011;16405;53.964;13.448;2022-11-10T18:21:04;22.42;;;5.47;;
29432;SDS011;16405;53.964;13.448;2022-11-10T18:23:31;20.13;;;5.13;;
29432;SDS011;16405;53.964;13.448;2022-11-10T18:26:10;35.92;;;6.20;;
29432;SDS011;16405;53.964;13.448;2022-11-10T18:29:01;19.55;;;5.10;;
29432;SDS011;16405;53.964;13.448;2022-11-10T18:31:27;23.73;;;6.20;;
29432;SDS011;16405;53.964;13.448;2022-11-10T18:33:53;15.93;;;4.88;;
29432;SDS011;16405;53.964;13.448;2022-11-10T18:36:19;20.77;;;5.57;;
29432;SDS011;16405;53.964;13.448;2022-11-10T18:38:50;18.25;;;5.10;;
29432;SDS011;16405;53.964;13.448;2022-11-10T18:41:16;25.20;;;5.38;;
29432;SDS011;16405;53.964;13.448;2022-11-10T18:44:01;25.88;;;5.95;;
29432;SDS011;16405;53.964;13.448;2022-11-10T18:46:26;23.30;;;6.45;;
29432;SDS011;16405;53.964;13.448;2022-11-10T18:48:52;29.67;;;6.30;;
29432;SDS011;16405;53.964;13.448;2022-11-10T18:51:18;22.90;;;5.20;;
29432;SDS011;16405;53.964;13.448;2022-11-10T18:53:46;16.65;;;4.40;;
29432;SDS011;16405;53.964;13.448;2022-11-10T18:56:12;27.13;;;6.18;;
29432;SDS011;16405;53.964;13.448;2022-11-10T18:58:38;21.25;;;5.00;;
29432;SDS011;16405;53.964;13.448;2022-11-10T19:01:10;19.85;;;4.63;;
29432;SDS011;16405;53.964;13.448;2022-11-10T19:03:38;20.48;;;5.05;;
29432;SDS011;16405;53.964;13.448;2022-11-10T19:06:06;19.30;;;4.72;;
29432;SDS011;16405;53.964;13.448;2022-11-10T19:08:34;19.05;;;4.63;;
29432;SDS011;16405;53.964;13.448;2022-11-10T19:11:03;17.90;;;4.95;;
29432;SDS011;16405;53.964;13.448;2022-11-10T19:13:34;22.65;;;4.55;;
29432;SDS011;16405;53.964;13.448;2022-11-10T19:16:11;16.63;;;4.50;;
29432;SDS011;16405;53.964;13.448;2022-11-10T19:18:40;19.65;;;4.60;;
29432;SDS011;16405;53.964;13.448;2022-11-10T19:21:08;22.92;;;4.80;;
29432;SDS011;16405;53.964;13.448;2022-11-10T19:23:43;21.13;;;4.30;;
29432;SDS011;16405;53.964;13.448;2022-11-10T19:26:10;19.10;;;3.95;;
29432;SDS011;16405;53.964;13.448;2022-11-10T19:28:47;20.40;;;4.03;;
29432;SDS011;16405;53.964;13.448;2022-11-10T19:31:14;19.73;;;4.10;;
29432;SDS011;16405;53.964;13.448;2022-11-10T19:33:52;19.80;;;4.90;;
29432;SDS011;16405;53.964;13.448;2022-11-10T19:36:23;20.15;;;5.43;;
29432;SDS011;16405;53.964;13.448;2022-11-10T19:38:57;27.02;;;9.77;;
29432;SDS011;16405;53.964;13.448;2022-11-10T19:41:24;48.53;;;32.00;;
29432;SDS011;16405;53.964;13.448;2022-11-10T19:43:57;23.92;;;7.90;;
29432;SDS011;16405;53.964;13.448;2022-11-10T19:46:28;18.25;;;6.95;;
29432;SDS011;16405;53.964;13.448;2022-11-10T19:49:00;22.02;;;7.57;;
29432;SDS011;16405;53.964;13.448;2022-11-10T19:51:31;18.58;;;4.53;;
29432;SDS011;16405;53.964;13.448;2022-11-10T19:54:10;18.58;;;5.22;;
29432;SDS011;16405;53.964;13.448;2022-11-10T19:56:45;21.27;;;4.03;;
29432;SDS011;16405;53.964;13.448;2022-11-10T19:59:11;15.98;;;4.13;;
29432;SDS011;16405;53.964;13.448;2022-11-10T20:01:38;15.82;;;3.92;;
29432;SDS011;16405;53.964;13.448;2022-11-10T20:04:04;13.48;;;3.60;;
29432;SDS011;16405;53.964;13.448;2022-11-10T20:06:37;20.23;;;4.38;;
29432;SDS011;16405;53.964;13.448;2022-11-10T20:09:34;20.83;;;3.45;;
29432;SDS011;16405;53.964;13.448;2022-11-10T20:12:00;20.35;;;3.63;;
29432;SDS011;16405;53.964;13.448;2022-11-10T20:14:36;18.50;;;3.50;;
29432;SDS011;16405;53.964;13.448;2022-11-10T20:17:11;18.40;;;3.42;;
29432;SDS011;16405;53.964;13.448;2022-11-10T20:19:39;18.73;;;3.45;;
29432;SDS011;16405;53.964;13.448;2022-11-10T20:22:05;14.63;;;3.10;;
29432;SDS011;16405;53.964;13.448;2022-11-10T20:24:37;19.77;;;3.30;;
29432;SDS011;16405;53.964;13.448;2022-11-10T20:27:08;18.50;;;3.33;;
29432;SDS011;16405;53.964;13.448;2022-11-10T20:29:45;12.48;;;2.78;;
29432;SDS011;16405;53.964;13.448;2022-11-10T20:32:26;16.70;;;2.78;;
29432;SDS011;16405;53.964;13.448;2022-11-10T20:34:55;18.52;;;3.00;;
29432;SDS011;16405;53.964;13.448;2022-11-10T20:37:21;20.17;;;4.43;;
29432;SDS011;16405;53.964;13.448;2022-11-10T20:39:50;16.65;;;3.22;;
29432;SDS011;16405;53.964;13.448;2022-11-10T20:42:18;15.15;;;3.15;;
29432;SDS011;16405;53.964;13.448;2022-11-10T20:44:50;17.35;;;2.83;;
29432;SDS011;16405;53.964;13.448;2022-11-10T20:47:22;14.65;;;3.08;;
29432;SDS011;16405;53.964;13.448;2022-11-10T20:49:51;20.17;;;3.28;;
29432;SDS011;16405;53.964;13.448;2022-11-10T20:52:19;17.45;;;2.88;;
29432;SDS011;16405;53.964;13.448;2022-11-10T20:54:51;20.77;;;3.28;;
29432;SDS011;16405;53.964;13.448;2022-11-10T20:57:17;15.27;;;2.72;;
29432;SDS011;16405;53.964;13.448;2022-11-10T20:59:43;12.23;;;2.85;;
29432;SDS011;16405;53.964;13.448;2022-11-10T21:02:10;15.63;;;2.72;;
29432;SDS011;16405;53.964;13.448;2022-11-10T21:04:36;14.73;;;3.05;;
29432;SDS011;16405;53.964;13.448;2022-11-10T21:07:08;18.80;;;2.60;;
29432;SDS011;16405;53.964;13.448;2022-11-10T21:09:34;18.77;;;3.00;;
29432;SDS011;16405;53.964;13.448;2022-11-10T21:12:00;17.52;;;2.70;;
29432;SDS011;16405;53.964;13.448;2022-11-10T21:14:45;18.40;;;3.33;;
29432;SDS011;16405;53.964;13.448;2022-11-10T21:17:11;19.02;;;3.20;;
29432;SDS011;16405;53.964;13.448;2022-11-10T21:19:39;22.92;;;3.22;;
29432;SDS011;16405;53.964;13.448;2022-11-10T21:22:05;15.15;;;2.55;;
29432;SDS011;16405;53.964;13.448;2022-11-10T21:24:30;13.80;;;2.85;;
29432;SDS011;16405;53.964;13.448;2022-11-10T21:26:56;15.65;;;2.92;;
29432;SDS011;16405;53.964;13.448;2022-11-10T21:29:22;23.77;;;3.35;;
29432;SDS011;16405;53.964;13.448;2022-11-10T21:31:51;19.25;;;2.97;;
29432;SDS011;16405;53.964;13.448;2022-11-10T21:34:19;21.13;;;3.50;;
29432;SDS011;16405;53.964;13.448;2022-11-10T21:36:44;15.80;;;2.88;;
29432;SDS011;16405;53.964;13.448;2022-11-10T21:39:11;23.17;;;3.00;;
29432;SDS011;16405;53.964;13.448;2022-11-10T21:41:37;18.48;;;3.10;;
29432;SDS011;16405;53.964;13.448;2022-11-10T21:44:03;22.75;;;3.05;;